createdAt,value
2022-08-18T00:02:19.094Z,25.06
2022-08-18T00:04:48.881Z,24.98
2022-08-18T00:07:22.701Z,24.92
2022-08-18T00:09:49.967Z,24.90
2022-08-18T00:12:32.052Z,24.91
2022-08-18T00:15:04.137Z,24.93
2022-08-18T00:17:32.684Z,24.94
2022-08-18T00:19:59.920Z,24.93
2022-08-18T00:22:27.333Z,24.95
2022-08-18T00:24:55.895Z,24.97
2022-08-18T00:27:28.208Z,24.97
2022-08-18T00:29:58.876Z,24.97
2022-08-18T00:32:28.436Z,24.93
2022-08-18T00:34:56.368Z,24.90
2022-08-18T00:37:23.920Z,24.91
2022-08-18T00:39:53.125Z,24.94
2022-08-18T00:42:29.051Z,24.97
2022-08-18T00:45:02.729Z,24.99
2022-08-18T00:47:42.686Z,25.00
2022-08-18T00:50:16.210Z,25.06
2022-08-18T00:52:54.706Z,25.13
2022-08-18T00:55:22.030Z,25.16
2022-08-18T00:57:50.006Z,25.15
2022-08-18T01:00:17.431Z,25.14
2022-08-18T01:02:48.389Z,25.17
2022-08-18T01:05:30.734Z,25.21
2022-08-18T01:07:58.187Z,25.24
2022-08-18T01:10:25.930Z,25.24
2022-08-18T01:12:54.811Z,25.22
2022-08-18T01:15:27.969Z,25.19
2022-08-18T01:18:16.194Z,25.19
2022-08-18T01:21:27.171Z,25.19
2022-08-18T01:23:54.510Z,25.18
2022-08-18T01:26:22.996Z,25.16
2022-08-18T01:28:50.970Z,25.15
2022-08-18T01:31:37.887Z,25.15
2022-08-18T01:34:06.825Z,25.19
2022-08-18T01:36:37.736Z,25.21
2022-08-18T01:39:07.150Z,25.20
2022-08-18T01:41:34.432Z,25.19
2022-08-18T01:44:02.531Z,25.16
2022-08-18T01:46:31.936Z,25.14
2022-08-18T01:49:01.573Z,25.17
2022-08-18T01:51:39.495Z,25.23
2022-08-18T01:54:12.130Z,25.28
2022-08-18T01:56:41.041Z,25.30
2022-08-18T01:59:14.798Z,25.26
2022-08-18T02:01:48.425Z,25.20
2022-08-18T02:04:34.408Z,25.18
2022-08-18T02:07:04.184Z,25.15
2022-08-18T02:09:32.199Z,25.13
2022-08-18T02:12:00.301Z,25.13
2022-08-18T02:14:27.766Z,25.09
2022-08-18T02:17:01.729Z,25.08
2022-08-18T02:19:38.599Z,25.12
2022-08-18T02:22:07.427Z,25.16
2022-08-18T02:24:35.721Z,25.18
2022-08-18T02:27:02.942Z,25.16
2022-08-18T02:29:30.827Z,25.11
2022-08-18T02:31:57.972Z,25.06
2022-08-18T02:34:25.854Z,25.05
2022-08-18T02:36:53.190Z,25.08
2022-08-18T02:39:20.676Z,25.11
2022-08-18T02:41:47.963Z,25.12
2022-08-18T02:44:15.090Z,25.12
2022-08-18T02:46:42.384Z,25.10
2022-08-18T02:49:09.624Z,25.09
2022-08-18T02:51:37.172Z,25.03
2022-08-18T02:54:09.444Z,24.99
2022-08-18T02:56:41.314Z,24.95
2022-08-18T02:59:11.988Z,24.88
2022-08-18T03:01:41.618Z,24.84
2022-08-18T03:04:09.877Z,24.87
2022-08-18T03:06:38.261Z,24.92
2022-08-18T03:09:06.672Z,24.98
2022-08-18T03:11:34.117Z,25.01
2022-08-18T03:14:01.595Z,25.03
2022-08-18T03:16:31.650Z,25.04
2022-08-18T03:18:59.675Z,25.10
2022-08-18T03:21:28.080Z,25.16
2022-08-18T03:24:01.234Z,25.17
2022-08-18T03:26:30.293Z,25.15
2022-08-18T03:28:58.480Z,25.14
2022-08-18T03:31:27.961Z,25.19
2022-08-18T03:34:02.034Z,25.24
2022-08-18T03:36:32.395Z,25.26
2022-08-18T03:39:02.527Z,25.29
2022-08-18T03:41:57.516Z,25.28
2022-08-18T03:44:17.685Z,25.34
2022-08-18T03:46:45.020Z,25.38
2022-08-18T03:49:13.754Z,25.39
2022-08-18T03:51:51.899Z,25.40
2022-08-18T03:54:19.175Z,25.41
2022-08-18T03:56:47.141Z,25.48
2022-08-18T03:59:20.040Z,25.55
2022-08-18T04:01:48.263Z,25.58
2022-08-18T04:04:19.429Z,25.59
2022-08-18T04:06:54.245Z,25.60
2022-08-18T04:09:22.377Z,25.61
2022-08-18T04:11:49.825Z,25.66
2022-08-18T04:14:19.212Z,25.70
2022-08-18T04:16:46.391Z,25.70
2022-08-18T04:19:14.397Z,25.67
2022-08-18T04:21:55.323Z,25.64
2022-08-18T04:24:22.583Z,25.69
2022-08-18T04:26:50.278Z,25.76
2022-08-18T04:29:20.002Z,25.77
2022-08-18T04:31:47.489Z,25.76
2022-08-18T04:34:15.006Z,25.76
2022-08-18T04:36:42.961Z,25.74
2022-08-18T04:39:11.651Z,25.75
2022-08-18T04:41:39.800Z,25.79
2022-08-18T04:44:08.957Z,25.79
2022-08-18T04:46:41.254Z,25.73
2022-08-18T04:49:09.488Z,25.66
2022-08-18T04:52:34.067Z,25.62
2022-08-18T04:54:25.079Z,25.63
2022-08-18T04:56:52.224Z,25.64
2022-08-18T04:59:19.503Z,25.64
2022-08-18T05:01:48.172Z,25.64
2022-08-18T05:04:16.807Z,25.69
2022-08-18T05:06:45.216Z,25.77
2022-08-18T05:09:16.384Z,25.80
2022-08-18T05:11:51.007Z,25.80
2022-08-18T05:14:18.587Z,25.80
2022-08-18T05:16:48.459Z,25.80
2022-08-18T05:19:20.059Z,25.88
2022-08-18T05:21:51.263Z,25.98
2022-08-18T05:24:19.356Z,26.07
2022-08-18T05:26:46.779Z,26.12
2022-08-18T05:29:17.955Z,26.20
2022-08-18T05:31:46.702Z,26.30
2022-08-18T05:34:14.575Z,26.44
2022-08-18T05:36:51.211Z,26.57
2022-08-18T05:39:21.988Z,26.65
2022-08-18T05:42:05.198Z,26.72
2022-08-18T05:44:34.781Z,26.79
2022-08-18T05:47:14.034Z,26.83
2022-08-18T05:49:42.600Z,26.82
2022-08-18T05:52:15.128Z,26.71
2022-08-18T05:55:08.485Z,26.57
2022-08-18T05:57:43.587Z,26.44
2022-08-18T06:00:11.878Z,26.32
2022-08-18T06:02:48.499Z,26.28
2022-08-18T06:05:23.623Z,26.28
2022-08-18T06:08:13.571Z,26.29
2022-08-18T06:10:43.775Z,26.28
2022-08-18T06:13:13.714Z,26.26
2022-08-18T06:15:56.963Z,26.26
2022-08-18T06:18:47.635Z,26.27
2022-08-18T06:21:27.837Z,26.32
2022-08-18T06:24:01.049Z,26.42
2022-08-18T06:26:50.058Z,26.50
2022-08-18T06:29:40.724Z,26.57
2022-08-18T06:32:14.817Z,26.59
2022-08-18T06:35:19.543Z,26.58
2022-08-18T06:38:27.263Z,26.51
2022-08-18T06:41:03.445Z,26.49
2022-08-18T06:43:32.772Z,26.48
2022-08-18T06:46:00.043Z,26.48
2022-08-18T06:48:54.729Z,26.50
2022-08-18T06:51:22.798Z,26.52
2022-08-18T06:54:21.935Z,26.58
2022-08-18T06:56:51.355Z,26.67
2022-08-18T06:59:28.272Z,26.72
2022-08-18T07:02:02.190Z,26.81
2022-08-18T07:04:33.824Z,26.96
2022-08-18T07:07:13.496Z,27.04
2022-08-18T07:09:40.896Z,27.12
2022-08-18T07:12:09.210Z,27.19
2022-08-18T07:14:50.888Z,27.24
2022-08-18T07:17:43.440Z,27.27
2022-08-18T07:20:47.684Z,27.25
2022-08-18T07:23:34.913Z,27.19
2022-08-18T07:26:06.544Z,27.14
2022-08-18T07:28:39.319Z,27.18
2022-08-18T07:31:20.025Z,27.18
2022-08-18T07:33:52.027Z,27.23
2022-08-18T07:39:11.074Z,27.27
2022-08-18T07:41:45.177Z,27.39
2022-08-18T07:44:35.871Z,27.52
2022-08-18T07:47:08.398Z,27.61
2022-08-18T07:49:36.812Z,27.63
2022-08-18T07:52:44.307Z,27.61
2022-08-18T07:55:12.794Z,27.63
2022-08-18T07:57:43.054Z,27.67
2022-08-18T08:00:35.086Z,27.77
2022-08-18T08:03:21.767Z,27.89
2022-08-18T08:06:06.425Z,28.00
2022-08-18T08:08:45.440Z,28.04
2022-08-18T08:11:34.079Z,28.05
2022-08-18T08:14:04.526Z,28.06
2022-08-18T08:16:38.994Z,28.10
2022-08-18T08:19:12.708Z,28.12
2022-08-18T08:21:45.254Z,28.15
2022-08-18T08:24:21.285Z,28.16
2022-08-18T08:27:17.329Z,28.22
2022-08-18T08:29:47.473Z,28.25
2022-08-18T08:32:18.217Z,28.26
2022-08-18T08:34:48.446Z,28.24
2022-08-18T08:37:19.987Z,28.18
2022-08-18T08:39:55.554Z,28.14
2022-08-18T08:42:42.333Z,28.08
2022-08-18T08:45:13.917Z,28.05
2022-08-18T08:48:11.861Z,28.06
2022-08-18T08:50:55.714Z,28.07
2022-08-18T08:53:38.874Z,28.07
2022-08-18T08:56:11.468Z,28.06
2022-08-18T08:58:48.899Z,28.02
2022-08-18T09:01:41.238Z,27.99
2022-08-18T09:04:29.445Z,28.00
2022-08-18T09:07:39.125Z,27.97
2022-08-18T09:10:41.002Z,28.00
2022-08-18T09:13:29.603Z,28.03
2022-08-18T09:16:22.612Z,28.10
2022-08-18T09:18:53.225Z,28.18
2022-08-18T09:21:38.861Z,28.25
2022-08-18T09:24:09.875Z,28.34
2022-08-18T09:26:42.970Z,28.38
2022-08-18T09:29:18.557Z,28.37
2022-08-18T09:31:46.328Z,28.29
2022-08-18T09:34:24.392Z,28.21
2022-08-18T09:37:04.419Z,28.18
2022-08-18T09:39:57.201Z,28.21
2022-08-18T09:45:33.344Z,28.23
2022-08-18T09:48:20.646Z,28.07
2022-08-18T09:50:37.073Z,28.25
2022-08-18T09:50:58.160Z,27.73
2022-08-18T09:56:55.868Z,27.15
2022-08-18T09:59:32.644Z,26.99
2022-08-18T10:02:04.183Z,26.88
2022-08-18T10:04:36.990Z,26.80
2022-08-18T10:07:17.915Z,26.75
2022-08-18T10:09:59.372Z,26.68
2022-08-18T10:12:37.729Z,26.59
2022-08-18T10:15:09.223Z,26.55
2022-08-18T10:18:14.940Z,26.48
2022-08-18T10:21:08.353Z,26.31
2022-08-18T10:24:07.945Z,26.16
2022-08-18T10:29:31.997Z,25.79
2022-08-18T10:32:00.135Z,25.69
2022-08-18T10:34:52.510Z,25.62
2022-08-18T10:37:37.154Z,25.57
2022-08-18T10:40:13.241Z,25.50
2022-08-18T10:43:27.010Z,25.46
2022-08-18T10:46:24.251Z,25.50
2022-08-18T10:48:43.557Z,25.58
2022-08-18T10:51:25.267Z,25.63
2022-08-18T10:54:01.911Z,25.68
2022-08-18T10:56:43.848Z,25.75
2022-08-18T10:59:29.216Z,25.82
2022-08-18T11:02:15.546Z,25.89
2022-08-18T11:04:58.783Z,25.96
2022-08-18T11:07:30.830Z,26.04
2022-08-18T11:10:29.517Z,26.18
2022-08-18T11:15:56.432Z,26.46
2022-08-18T11:18:42.791Z,26.51
2022-08-18T11:21:33.722Z,26.52
2022-08-18T11:24:27.237Z,26.55
2022-08-18T11:27:15.315Z,26.67
2022-08-18T11:29:44.097Z,26.80
2022-08-18T11:32:31.495Z,26.90
2022-08-18T11:35:02.639Z,27.01
2022-08-18T11:37:51.849Z,27.08
2022-08-18T11:43:25.123Z,27.37
2022-08-18T11:46:02.314Z,27.48
2022-08-18T11:48:51.574Z,27.54
2022-08-18T11:51:27.651Z,27.61
2022-08-18T11:54:00.739Z,27.75
2022-08-18T11:56:37.619Z,27.85
2022-08-18T11:59:08.176Z,27.88
2022-08-18T12:01:55.053Z,27.89
2022-08-18T12:04:29.144Z,27.87
2022-08-18T12:06:59.846Z,27.87
2022-08-18T12:10:07.893Z,27.89
2022-08-18T12:12:24.612Z,27.90
2022-08-18T12:15:13.683Z,27.92
2022-08-18T12:17:52.234Z,27.95
2022-08-18T12:20:20.833Z,27.99
2022-08-18T12:22:49.764Z,28.03
2022-08-18T12:25:24.958Z,28.05
2022-08-18T12:27:54.379Z,28.09
2022-08-18T12:30:22.334Z,28.11
2022-08-18T12:33:05.706Z,28.18
2022-08-18T12:35:38.034Z,28.36
2022-08-18T12:38:13.192Z,28.47
2022-08-18T12:40:42.063Z,28.61
2022-08-18T12:43:09.526Z,28.71
2022-08-18T12:45:38.355Z,28.79
2022-08-18T12:48:08.428Z,28.88
2022-08-18T12:50:50.137Z,28.93
2022-08-18T12:53:29.820Z,28.95
2022-08-18T12:56:19.830Z,28.92
2022-08-18T12:58:47.882Z,28.90
2022-08-18T13:01:17.516Z,28.89
2022-08-18T13:04:10.569Z,28.86
2022-08-18T13:06:37.634Z,28.80
2022-08-18T13:09:16.354Z,28.70
2022-08-18T13:11:56.008Z,28.61
2022-08-18T13:14:27.662Z,28.60
2022-08-18T13:16:56.759Z,28.72
2022-08-18T13:19:24.523Z,28.82
2022-08-18T13:21:59.660Z,28.85
2022-08-18T13:24:27.121Z,28.86
2022-08-18T13:26:56.523Z,28.83
2022-08-18T13:29:24.319Z,28.81
2022-08-18T13:31:57.877Z,28.78
2022-08-18T13:34:29.940Z,28.74
2022-08-18T13:36:57.824Z,28.69
2022-08-18T13:39:25.595Z,28.66
2022-08-18T13:42:26.171Z,28.61
2022-08-18T13:44:53.118Z,28.54
2022-08-18T13:47:23.460Z,28.48
2022-08-18T13:49:52.566Z,28.40
2022-08-18T13:52:35.624Z,28.26
2022-08-18T13:55:07.999Z,28.07
2022-08-18T13:57:37.559Z,27.89
2022-08-18T14:00:18.260Z,27.73
2022-08-18T14:02:49.021Z,27.59
2022-08-18T14:05:17.069Z,27.49
2022-08-18T14:07:45.345Z,27.35
2022-08-18T14:10:15.673Z,27.21
2022-08-18T14:12:42.995Z,27.07
2022-08-18T14:15:12.416Z,26.94
2022-08-18T14:17:42.050Z,26.86
2022-08-18T14:20:29.270Z,26.80
2022-08-18T14:23:23.563Z,26.75
2022-08-18T14:26:10.987Z,26.71
2022-08-18T14:28:41.417Z,26.69
2022-08-18T14:31:09.074Z,26.73
2022-08-18T14:33:51.842Z,26.77
2022-08-18T14:36:30.402Z,26.77
2022-08-18T14:39:00.554Z,26.76
2022-08-18T14:41:28.285Z,26.74
2022-08-18T14:44:12.308Z,26.72
2022-08-18T14:46:54.109Z,26.69
2022-08-18T14:49:28.506Z,26.65
2022-08-18T14:52:00.075Z,26.62
2022-08-18T14:54:30.093Z,26.58
2022-08-18T14:56:58.882Z,26.59
2022-08-18T14:59:28.797Z,26.62
2022-08-18T15:01:58.014Z,26.62
2022-08-18T15:04:27.912Z,26.60
2022-08-18T15:06:56.697Z,26.59
2022-08-18T15:09:26.832Z,26.58
2022-08-18T15:11:56.757Z,26.55
2022-08-18T15:14:33.035Z,26.58
2022-08-18T15:17:11.885Z,26.61
2022-08-18T15:19:58.598Z,26.60
2022-08-18T15:22:51.103Z,26.58
2022-08-18T15:25:37.547Z,26.54
2022-08-18T15:28:07.027Z,26.51
2022-08-18T15:30:45.780Z,26.50
2022-08-18T15:33:19.224Z,26.50
2022-08-18T15:35:51.074Z,26.49
2022-08-18T15:38:19.159Z,26.46
2022-08-18T15:41:05.969Z,26.39
2022-08-18T15:43:45.818Z,26.33
2022-08-18T15:46:16.806Z,26.39
2022-08-18T15:48:44.765Z,26.45
2022-08-18T15:51:13.762Z,26.48
2022-08-18T15:53:45.739Z,26.49
2022-08-18T15:56:20.880Z,26.49
2022-08-18T15:58:49.308Z,26.47
2022-08-18T16:01:20.887Z,26.44
2022-08-18T16:03:58.295Z,26.46
2022-08-18T16:06:27.886Z,26.48
2022-08-18T16:09:00.292Z,26.48
2022-08-18T16:11:29.106Z,26.41
2022-08-18T16:14:01.116Z,26.31
2022-08-18T16:16:33.285Z,26.25
2022-08-18T16:19:06.715Z,26.20
2022-08-18T16:21:34.724Z,26.22
2022-08-18T16:24:02.077Z,26.25
2022-08-18T16:26:30.572Z,26.26
2022-08-18T16:29:00.239Z,26.25
2022-08-18T16:31:29.981Z,26.23
2022-08-18T16:33:58.019Z,26.19
2022-08-18T16:36:25.915Z,26.15
2022-08-18T16:38:54.373Z,26.17
2022-08-18T16:41:26.247Z,26.21
2022-08-18T16:43:53.532Z,26.19
2022-08-18T16:46:24.785Z,26.15
2022-08-18T16:48:52.857Z,26.09
2022-08-18T16:51:22.089Z,26.04
2022-08-18T16:53:52.419Z,25.97
2022-08-18T16:56:22.135Z,25.97
2022-08-18T16:59:08.059Z,25.95
2022-08-18T17:01:55.973Z,25.89
2022-08-18T17:04:26.299Z,25.83
2022-08-18T17:06:53.581Z,25.78
2022-08-18T17:09:23.932Z,25.74
2022-08-18T17:11:52.486Z,25.77
2022-08-18T17:14:26.042Z,25.81
2022-08-18T17:16:55.056Z,25.83
2022-08-18T17:19:23.711Z,25.81
2022-08-18T17:21:52.486Z,25.78
2022-08-18T17:24:31.308Z,25.74
2022-08-18T17:27:27.213Z,25.76
2022-08-18T17:30:16.554Z,25.78
2022-08-18T17:32:54.154Z,25.76
2022-08-18T17:35:30.750Z,25.73
2022-08-18T17:38:32.835Z,25.69
2022-08-18T17:41:00.899Z,25.65
2022-08-18T17:43:35.814Z,25.67
2022-08-18T17:46:13.643Z,25.70
2022-08-18T17:48:44.533Z,25.69
2022-08-18T17:51:35.281Z,25.66
2022-08-18T17:54:16.754Z,25.62
2022-08-18T17:56:47.090Z,25.58
2022-08-18T17:59:54.384Z,25.54
2022-08-18T18:02:29.824Z,25.50
2022-08-18T18:05:02.828Z,25.54
2022-08-18T18:07:52.120Z,25.57
2022-08-18T18:10:27.901Z,25.53
2022-08-18T18:13:06.535Z,25.47
2022-08-18T18:15:34.315Z,25.43
2022-08-18T18:18:42.071Z,25.37
2022-08-18T18:21:15.516Z,25.30
2022-08-18T18:24:05.445Z,25.30
2022-08-18T18:26:40.637Z,25.30
2022-08-18T18:29:33.572Z,25.25
2022-08-18T18:32:28.613Z,25.17
2022-08-18T18:35:13.162Z,25.08
2022-08-18T18:37:49.859Z,25.03
2022-08-18T18:40:26.655Z,25.07
2022-08-18T18:42:55.278Z,25.10
2022-08-18T18:45:27.405Z,25.11
2022-08-18T18:48:06.976Z,25.09
2022-08-18T18:50:52.858Z,25.05
2022-08-18T18:53:50.151Z,24.99
2022-08-18T18:56:30.770Z,24.96
2022-08-18T18:59:15.172Z,25.00
2022-08-18T19:01:48.208Z,25.02
2022-08-18T19:04:25.500Z,25.01
2022-08-18T19:06:59.152Z,24.98
2022-08-18T19:09:39.677Z,24.96
2022-08-18T19:12:34.532Z,24.90
2022-08-18T19:15:14.973Z,24.87
2022-08-18T19:17:49.561Z,24.90
2022-08-18T19:20:17.881Z,24.94
2022-08-18T19:22:49.540Z,24.94
2022-08-18T19:25:21.959Z,24.93
2022-08-18T19:28:00.285Z,24.93
2022-08-18T19:30:27.681Z,24.89
2022-08-18T19:33:02.321Z,24.85
2022-08-18T19:35:43.699Z,24.86
2022-08-18T19:38:53.569Z,24.89
2022-08-18T19:41:46.379Z,24.86
2022-08-18T19:44:20.127Z,24.82
2022-08-18T19:46:52.985Z,24.79
2022-08-18T19:49:27.612Z,24.78
2022-08-18T19:52:03.056Z,24.83
2022-08-18T19:56:47.427Z,24.93
2022-08-18T19:59:26.141Z,24.87
2022-08-18T20:02:27.814Z,24.85
2022-08-18T20:05:29.569Z,24.82
2022-08-18T20:08:07.763Z,24.77
2022-08-18T20:11:08.284Z,24.76
2022-08-18T20:13:42.901Z,24.71
2022-08-18T20:16:12.476Z,24.65
2022-08-18T20:18:40.825Z,24.61
2022-08-18T20:21:17.564Z,24.56
2022-08-18T20:24:05.327Z,24.57
2022-08-18T20:26:35.565Z,24.56
2022-08-18T20:29:03.321Z,24.50
2022-08-18T20:31:50.007Z,24.45
2022-08-18T20:34:22.896Z,24.40
2022-08-18T20:36:50.372Z,24.33
2022-08-18T20:39:46.975Z,24.34
2022-08-18T20:42:24.574Z,24.35
2022-08-18T20:44:57.974Z,24.31
2022-08-18T20:47:49.733Z,24.26
2022-08-18T20:50:46.174Z,24.21
2022-08-18T20:53:32.857Z,24.23
2022-08-18T20:56:09.382Z,24.26
2022-08-18T20:59:08.756Z,24.26
2022-08-18T21:01:37.346Z,24.24
2022-08-18T21:04:06.852Z,24.22
2022-08-18T21:06:42.497Z,24.26
2022-08-18T21:09:11.798Z,24.32
2022-08-18T21:11:44.513Z,24.32
2022-08-18T21:14:13.268Z,24.29
2022-08-18T21:16:45.198Z,24.26
2022-08-18T21:19:25.670Z,24.24
2022-08-18T21:21:55.631Z,24.27
2022-08-18T21:24:37.072Z,24.33
2022-08-18T21:27:26.535Z,24.34
2022-08-18T21:29:58.584Z,24.33
2022-08-18T21:32:34.049Z,24.30
2022-08-18T21:35:08.025Z,24.27
2022-08-18T21:37:40.909Z,24.30
2022-08-18T21:40:09.104Z,24.32
2022-08-18T21:42:40.810Z,24.33
2022-08-18T21:45:16.035Z,24.33
2022-08-18T21:48:11.256Z,24.33
2022-08-18T21:50:39.336Z,24.31
2022-08-18T21:53:13.036Z,24.36
2022-08-18T21:55:45.561Z,24.40
2022-08-18T21:58:18.392Z,24.40
2022-08-18T22:01:10.467Z,24.36
2022-08-18T22:03:51.812Z,24.31
2022-08-18T22:06:34.586Z,24.25
2022-08-18T22:09:34.581Z,24.23
2022-08-18T22:12:49.365Z,24.21
2022-08-18T22:15:19.946Z,24.16
2022-08-18T22:17:59.548Z,24.09
2022-08-18T22:20:51.011Z,24.01
2022-08-18T22:23:44.579Z,24.00
2022-08-18T22:26:18.488Z,24.01
2022-08-18T22:28:55.600Z,23.99
2022-08-18T22:31:23.540Z,23.95
2022-08-18T22:33:51.502Z,23.93
2022-08-18T22:36:21.619Z,23.94
2022-08-18T22:38:49.409Z,23.94
2022-08-18T22:41:16.981Z,23.92
2022-08-18T22:43:45.031Z,23.89
2022-08-18T22:46:21.711Z,23.83
2022-08-18T22:48:53.162Z,23.76
2022-08-18T22:51:24.706Z,23.73
2022-08-18T22:53:52.640Z,23.69
2022-08-18T22:56:33.871Z,23.64
2022-08-18T22:59:13.772Z,23.61
2022-08-18T23:01:45.231Z,23.59
2022-08-18T23:04:12.817Z,23.63
2022-08-18T23:06:40.792Z,23.66
2022-08-18T23:09:08.350Z,23.65
2022-08-18T23:11:36.023Z,23.61
2022-08-18T23:14:03.572Z,23.54
2022-08-18T23:16:32.555Z,23.58
2022-08-18T23:19:04.022Z,23.63
2022-08-18T23:21:35.157Z,23.63
2022-08-18T23:24:07.533Z,23.63
2022-08-18T23:26:35.404Z,23.63
2022-08-18T23:29:04.712Z,23.64
2022-08-18T23:31:32.984Z,23.70
2022-08-18T23:34:00.829Z,23.74
2022-08-18T23:36:29.539Z,23.75
2022-08-18T23:38:56.995Z,23.75
2022-08-18T23:41:24.557Z,23.74
2022-08-18T23:43:52.111Z,23.78
2022-08-18T23:46:24.694Z,23.81
2022-08-18T23:48:52.573Z,23.82
2022-08-18T23:51:24.041Z,23.80
2022-08-18T23:53:52.694Z,23.76
2022-08-18T23:56:20.460Z,23.75
2022-08-18T23:58:56.321Z,23.78
